sensor_id;sensor_type;location;lat;lon;timestamp;temperature;humidity
12977;DHT22;6553;48.412;9.514;2023-05-07T00:00:17;19.70;61.50
12977;DHT22;6553;48.412;9.514;2023-05-07T00:02:44;19.70;61.50
12977;DHT22;6553;48.412;9.514;2023-05-07T00:05:11;19.70;61.50
12977;DHT22;6553;48.412;9.514;2023-05-07T00:07:37;19.70;61.50
12977;DHT22;6553;48.412;9.514;2023-05-07T00:10:04;19.70;61.50
12977;DHT22;6553;48.412;9.514;2023-05-07T00:12:31;19.70;61.50
12977;DHT22;6553;48.412;9.514;2023-05-07T00:15:02;19.70;61.50
12977;DHT22;6553;48.412;9.514;2023-05-07T00:17:29;19.70;61.50
12977;DHT22;6553;48.412;9.514;2023-05-07T00:19:55;19.70;61.50
12977;DHT22;6553;48.412;9.514;2023-05-07T00:22:21;19.60;61.30
12977;DHT22;6553;48.412;9.514;2023-05-07T00:24:47;19.70;61.50
12977;DHT22;6553;48.412;9.514;2023-05-07T00:27:12;19.70;61.50
12977;DHT22;6553;48.412;9.514;2023-05-07T00:29:39;19.70;61.50
12977;DHT22;6553;48.412;9.514;2023-05-07T00:32:04;19.60;61.40
12977;DHT22;6553;48.412;9.514;2023-05-07T00:34:30;19.70;61.40
12977;DHT22;6553;48.412;9.514;2023-05-07T00:36:56;19.60;61.30
12977;DHT22;6553;48.412;9.514;2023-05-07T00:39:22;19.70;61.50
12977;DHT22;6553;48.412;9.514;2023-05-07T00:41:47;19.60;61.40
12977;DHT22;6553;48.412;9.514;2023-05-07T00:44:13;19.70;61.40
12977;DHT22;6553;48.412;9.514;2023-05-07T00:46:40;19.60;61.30
12977;DHT22;6553;48.412;9.514;2023-05-07T00:49:06;19.70;61.40
12977;DHT22;6553;48.412;9.514;2023-05-07T00:51:33;19.60;61.30
12977;DHT22;6553;48.412;9.514;2023-05-07T00:54:02;19.60;61.30
12977;DHT22;6553;48.412;9.514;2023-05-07T00:56:28;19.60;61.30
12977;DHT22;6553;48.412;9.514;2023-05-07T00:58:54;19.60;61.30
12977;DHT22;6553;48.412;9.514;2023-05-07T01:01:20;19.60;61.30
12977;DHT22;6553;48.412;9.514;2023-05-07T01:03:47;19.60;61.30
12977;DHT22;6553;48.412;9.514;2023-05-07T01:06:13;19.60;61.40
12977;DHT22;6553;48.412;9.514;2023-05-07T01:08:42;19.60;61.30
12977;DHT22;6553;48.412;9.514;2023-05-07T01:11:08;19.60;61.40
12977;DHT22;6553;48.412;9.514;2023-05-07T01:13:36;19.60;61.30
12977;DHT22;6553;48.412;9.514;2023-05-07T01:16:04;19.60;61.40
12977;DHT22;6553;48.412;9.514;2023-05-07T01:18:30;19.60;61.30
12977;DHT22;6553;48.412;9.514;2023-05-07T01:20:58;19.60;61.40
12977;DHT22;6553;48.412;9.514;2023-05-07T01:23:27;19.60;61.30
12977;DHT22;6553;48.412;9.514;2023-05-07T01:25:54;19.60;61.40
12977;DHT22;6553;48.412;9.514;2023-05-07T01:28:22;19.60;61.40
12977;DHT22;6553;48.412;9.514;2023-05-07T01:30:54;19.60;61.40
12977;DHT22;6553;48.412;9.514;2023-05-07T01:33:26;19.60;61.40
12977;DHT22;6553;48.412;9.514;2023-05-07T01:35:57;19.60;61.40
12977;DHT22;6553;48.412;9.514;2023-05-07T01:38:27;19.60;61.40
12977;DHT22;6553;48.412;9.514;2023-05-07T01:40:54;19.60;61.40
12977;DHT22;6553;48.412;9.514;2023-05-07T01:43:21;19.60;61.40
12977;DHT22;6553;48.412;9.514;2023-05-07T01:45:47;19.60;61.40
12977;DHT22;6553;48.412;9.514;2023-05-07T01:48:15;19.60;61.40
12977;DHT22;6553;48.412;9.514;2023-05-07T01:50:42;19.60;61.40
12977;DHT22;6553;48.412;9.514;2023-05-07T01:53:08;19.60;61.40
12977;DHT22;6553;48.412;9.514;2023-05-07T01:55:34;19.60;61.50
12977;DHT22;6553;48.412;9.514;2023-05-07T01:58:03;19.60;61.50
12977;DHT22;6553;48.412;9.514;2023-05-07T02:00:29;19.60;61.50
12977;DHT22;6553;48.412;9.514;2023-05-07T02:02:55;19.60;61.50
12977;DHT22;6553;48.412;9.514;2023-05-07T02:05:30;19.60;61.50
12977;DHT22;6553;48.412;9.514;2023-05-07T02:08:15;19.60;61.50
12977;DHT22;6553;48.412;9.514;2023-05-07T02:10:41;19.60;61.40
12977;DHT22;6553;48.412;9.514;2023-05-07T02:13:07;19.60;61.50
12977;DHT22;6553;48.412;9.514;2023-05-07T02:15:32;19.60;61.40
12977;DHT22;6553;48.412;9.514;2023-05-07T02:18:02;19.60;61.50
12977;DHT22;6553;48.412;9.514;2023-05-07T02:20:30;19.60;61.50
12977;DHT22;6553;48.412;9.514;2023-05-07T02:22:56;19.60;61.40
12977;DHT22;6553;48.412;9.514;2023-05-07T02:25:22;19.60;61.50
12977;DHT22;6553;48.412;9.514;2023-05-07T02:27:48;19.60;61.50
12977;DHT22;6553;48.412;9.514;2023-05-07T02:30:14;19.60;61.60
12977;DHT22;6553;48.412;9.514;2023-05-07T02:32:41;19.60;61.50
12977;DHT22;6553;48.412;9.514;2023-05-07T02:35:07;19.60;61.50
12977;DHT22;6553;48.412;9.514;2023-05-07T02:37:33;19.60;61.60
12977;DHT22;6553;48.412;9.514;2023-05-07T02:39:59;19.60;61.50
12977;DHT22;6553;48.412;9.514;2023-05-07T02:42:24;19.60;61.50
12977;DHT22;6553;48.412;9.514;2023-05-07T02:44:50;19.60;61.50
12977;DHT22;6553;48.412;9.514;2023-05-07T02:47:16;19.60;61.50
12977;DHT22;6553;48.412;9.514;2023-05-07T02:49:43;19.60;61.60
12977;DHT22;6553;48.412;9.514;2023-05-07T02:52:09;19.60;61.60
12977;DHT22;6553;48.412;9.514;2023-05-07T02:54:35;19.60;61.50
12977;DHT22;6553;48.412;9.514;2023-05-07T02:57:01;19.60;61.50
12977;DHT22;6553;48.412;9.514;2023-05-07T02:59:27;19.60;61.50
12977;DHT22;6553;48.412;9.514;2023-05-07T03:01:53;19.60;61.50
12977;DHT22;6553;48.412;9.514;2023-05-07T03:04:20;19.60;61.80
12977;DHT22;6553;48.412;9.514;2023-05-07T03:06:46;19.60;61.50
12977;DHT22;6553;48.412;9.514;2023-05-07T03:09:12;19.60;61.50
12977;DHT22;6553;48.412;9.514;2023-05-07T03:11:38;19.50;61.50
12977;DHT22;6553;48.412;9.514;2023-05-07T03:14:04;19.60;61.50
12977;DHT22;6553;48.412;9.514;2023-05-07T03:16:30;19.50;61.40
12977;DHT22;6553;48.412;9.514;2023-05-07T03:18:56;19.60;61.50
12977;DHT22;6553;48.412;9.514;2023-05-07T03:21:22;19.50;61.40
12977;DHT22;6553;48.412;9.514;2023-05-07T03:23:47;19.50;61.40
12977;DHT22;6553;48.412;9.514;2023-05-07T03:26:13;19.50;61.40
12977;DHT22;6553;48.412;9.514;2023-05-07T03:28:40;19.50;61.40
12977;DHT22;6553;48.412;9.514;2023-05-07T03:31:10;19.50;61.40
12977;DHT22;6553;48.412;9.514;2023-05-07T03:33:52;19.50;61.40
12977;DHT22;6553;48.412;9.514;2023-05-07T03:36:20;19.50;61.50
12977;DHT22;6553;48.412;9.514;2023-05-07T03:38:46;19.50;62.20
12977;DHT22;6553;48.412;9.514;2023-05-07T03:41:16;19.50;61.40
12977;DHT22;6553;48.412;9.514;2023-05-07T03:43:44;19.50;61.40
12977;DHT22;6553;48.412;9.514;2023-05-07T03:46:11;19.50;61.40
12977;DHT22;6553;48.412;9.514;2023-05-07T03:48:37;19.50;61.40
12977;DHT22;6553;48.412;9.514;2023-05-07T03:51:04;19.50;61.40
12977;DHT22;6553;48.412;9.514;2023-05-07T03:53:32;19.50;61.40
12977;DHT22;6553;48.412;9.514;2023-05-07T03:55:57;19.50;61.40
12977;DHT22;6553;48.412;9.514;2023-05-07T03:58:23;19.50;61.40
12977;DHT22;6553;48.412;9.514;2023-05-07T04:00:50;19.50;61.30
12977;DHT22;6553;48.412;9.514;2023-05-07T04:03:24;19.50;61.40
12977;DHT22;6553;48.412;9.514;2023-05-07T04:05:51;19.50;61.40
12977;DHT22;6553;48.412;9.514;2023-05-07T04:08:17;19.50;61.40
12977;DHT22;6553;48.412;9.514;2023-05-07T04:10:46;19.50;61.30
12977;DHT22;6553;48.412;9.514;2023-05-07T04:13:12;19.50;61.40
12977;DHT22;6553;48.412;9.514;2023-05-07T04:15:38;19.50;61.40
12977;DHT22;6553;48.412;9.514;2023-05-07T04:18:08;19.50;61.40
12977;DHT22;6553;48.412;9.514;2023-05-07T04:20:35;19.50;61.40
12977;DHT22;6553;48.412;9.514;2023-05-07T04:23:03;19.50;61.40
12977;DHT22;6553;48.412;9.514;2023-05-07T04:25:29;19.50;61.40
12977;DHT22;6553;48.412;9.514;2023-05-07T04:28:02;19.50;61.40
12977;DHT22;6553;48.412;9.514;2023-05-07T04:30:29;19.50;61.40
12977;DHT22;6553;48.412;9.514;2023-05-07T04:32:55;19.50;61.40
12977;DHT22;6553;48.412;9.514;2023-05-07T04:35:23;19.50;61.40
12977;DHT22;6553;48.412;9.514;2023-05-07T04:37:49;19.50;61.30
12977;DHT22;6553;48.412;9.514;2023-05-07T04:40:15;19.50;61.40
12977;DHT22;6553;48.412;9.514;2023-05-07T04:42:42;19.50;61.40
12977;DHT22;6553;48.412;9.514;2023-05-07T04:45:09;19.50;61.40
12977;DHT22;6553;48.412;9.514;2023-05-07T04:47:37;19.50;61.40
12977;DHT22;6553;48.412;9.514;2023-05-07T04:50:02;19.50;61.40
12977;DHT22;6553;48.412;9.514;2023-05-07T04:52:28;19.50;61.40
12977;DHT22;6553;48.412;9.514;2023-05-07T04:54:54;19.50;61.40
12977;DHT22;6553;48.412;9.514;2023-05-07T04:57:20;19.50;61.40
12977;DHT22;6553;48.412;9.514;2023-05-07T04:59:47;19.50;61.40
12977;DHT22;6553;48.412;9.514;2023-05-07T05:02:13;19.50;61.50
12977;DHT22;6553;48.412;9.514;2023-05-07T05:04:39;19.50;61.50
12977;DHT22;6553;48.412;9.514;2023-05-07T05:07:06;19.50;61.50
12977;DHT22;6553;48.412;9.514;2023-05-07T05:09:31;19.50;61.50
12977;DHT22;6553;48.412;9.514;2023-05-07T05:11:57;19.50;61.50
12977;DHT22;6553;48.412;9.514;2023-05-07T05:14:23;19.50;61.50
12977;DHT22;6553;48.412;9.514;2023-05-07T05:16:50;19.50;61.50
12977;DHT22;6553;48.412;9.514;2023-05-07T05:19:15;19.50;61.50
12977;DHT22;6553;48.412;9.514;2023-05-07T05:21:43;19.50;61.50
12977;DHT22;6553;48.412;9.514;2023-05-07T05:24:10;19.40;61.40
12977;DHT22;6553;48.412;9.514;2023-05-07T05:26:36;19.50;61.50
12977;DHT22;6553;48.412;9.514;2023-05-07T05:29:02;19.50;61.50
12977;DHT22;6553;48.412;9.514;2023-05-07T05:31:30;19.50;61.50
12977;DHT22;6553;48.412;9.514;2023-05-07T05:33:55;19.50;61.50
12977;DHT22;6553;48.412;9.514;2023-05-07T05:36:21;19.50;61.50
12977;DHT22;6553;48.412;9.514;2023-05-07T05:38:50;19.50;61.50
12977;DHT22;6553;48.412;9.514;2023-05-07T05:41:15;19.50;61.50
12977;DHT22;6553;48.412;9.514;2023-05-07T05:43:41;19.50;61.50
12977;DHT22;6553;48.412;9.514;2023-05-07T05:46:07;19.50;61.60
12977;DHT22;6553;48.412;9.514;2023-05-07T05:48:34;19.50;61.50
12977;DHT22;6553;48.412;9.514;2023-05-07T05:51:02;19.50;61.60
12977;DHT22;6553;48.412;9.514;2023-05-07T05:53:28;19.50;61.50
12977;DHT22;6553;48.412;9.514;2023-05-07T05:55:54;19.50;61.50
12977;DHT22;6553;48.412;9.514;2023-05-07T05:58:20;19.40;61.50
12977;DHT22;6553;48.412;9.514;2023-05-07T06:00:51;19.50;61.60
12977;DHT22;6553;48.412;9.514;2023-05-07T06:03:20;19.40;61.50
12977;DHT22;6553;48.412;9.514;2023-05-07T06:05:47;19.50;61.70
12977;DHT22;6553;48.412;9.514;2023-05-07T06:08:13;19.40;61.50
12977;DHT22;6553;48.412;9.514;2023-05-07T06:10:39;19.40;61.50
12977;DHT22;6553;48.412;9.514;2023-05-07T06:13:07;19.40;61.70
12977;DHT22;6553;48.412;9.514;2023-05-07T06:15:34;19.50;61.70
12977;DHT22;6553;48.412;9.514;2023-05-07T06:18:05;19.40;61.60
12977;DHT22;6553;48.412;9.514;2023-05-07T06:20:31;19.50;61.80
12977;DHT22;6553;48.412;9.514;2023-05-07T06:22:59;19.50;61.70
12977;DHT22;6553;48.412;9.514;2023-05-07T06:25:25;19.50;61.80
12977;DHT22;6553;48.412;9.514;2023-05-07T06:27:50;19.50;61.80
12977;DHT22;6553;48.412;9.514;2023-05-07T06:30:16;19.50;61.80
12977;DHT22;6553;48.412;9.514;2023-05-07T06:32:42;19.40;61.70
12977;DHT22;6553;48.412;9.514;2023-05-07T06:35:09;19.40;61.70
12977;DHT22;6553;48.412;9.514;2023-05-07T06:37:36;19.40;61.80
12977;DHT22;6553;48.412;9.514;2023-05-07T06:40:09;19.50;61.90
12977;DHT22;6553;48.412;9.514;2023-05-07T06:42:37;19.50;61.80
12977;DHT22;6553;48.412;9.514;2023-05-07T06:45:21;19.50;61.80
12977;DHT22;6553;48.412;9.514;2023-05-07T06:47:47;19.50;61.90
12977;DHT22;6553;48.412;9.514;2023-05-07T06:50:13;19.50;61.90
12977;DHT22;6553;48.412;9.514;2023-05-07T06:52:42;19.40;61.80
12977;DHT22;6553;48.412;9.514;2023-05-07T06:55:09;19.50;62.00
12977;DHT22;6553;48.412;9.514;2023-05-07T06:57:35;19.50;62.00
12977;DHT22;6553;48.412;9.514;2023-05-07T07:00:00;19.50;62.00
12977;DHT22;6553;48.412;9.514;2023-05-07T07:02:26;19.50;61.90
12977;DHT22;6553;48.412;9.514;2023-05-07T07:04:52;19.50;62.00
12977;DHT22;6553;48.412;9.514;2023-05-07T07:07:19;19.50;62.10
12977;DHT22;6553;48.412;9.514;2023-05-07T07:09:46;19.40;61.90
12977;DHT22;6553;48.412;9.514;2023-05-07T07:12:15;19.50;62.10
12977;DHT22;6553;48.412;9.514;2023-05-07T07:14:42;19.50;62.10
12977;DHT22;6553;48.412;9.514;2023-05-07T07:17:07;19.50;62.00
12977;DHT22;6553;48.412;9.514;2023-05-07T07:19:33;19.50;61.90
12977;DHT22;6553;48.412;9.514;2023-05-07T07:22:01;19.50;61.90
12977;DHT22;6553;48.412;9.514;2023-05-07T07:24:27;19.60;61.90
12977;DHT22;6553;48.412;9.514;2023-05-07T07:26:57;19.60;61.80
12977;DHT22;6553;48.412;9.514;2023-05-07T07:29:24;19.60;61.70
12977;DHT22;6553;48.412;9.514;2023-05-07T07:31:52;19.70;62.10
12977;DHT22;6553;48.412;9.514;2023-05-07T07:34:19;19.70;62.10
12977;DHT22;6553;48.412;9.514;2023-05-07T07:36:45;19.70;62.00
12977;DHT22;6553;48.412;9.514;2023-05-07T07:39:10;19.70;62.00
12977;DHT22;6553;48.412;9.514;2023-05-07T07:41:36;19.70;62.00
12977;DHT22;6553;48.412;9.514;2023-05-07T07:44:03;19.70;62.00
12977;DHT22;6553;48.412;9.514;2023-05-07T07:46:34;19.70;62.10
12977;DHT22;6553;48.412;9.514;2023-05-07T07:49:00;19.80;62.10
12977;DHT22;6553;48.412;9.514;2023-05-07T07:51:26;19.80;62.10
12977;DHT22;6553;48.412;9.514;2023-05-07T07:53:53;19.80;62.20
12977;DHT22;6553;48.412;9.514;2023-05-07T07:56:18;19.80;62.10
12977;DHT22;6553;48.412;9.514;2023-05-07T07:58:45;19.80;62.00
12977;DHT22;6553;48.412;9.514;2023-05-07T08:01:11;19.90;62.20
12977;DHT22;6553;48.412;9.514;2023-05-07T08:03:38;19.90;62.00
12977;DHT22;6553;48.412;9.514;2023-05-07T08:06:04;19.90;62.00
12977;DHT22;6553;48.412;9.514;2023-05-07T08:08:32;19.90;62.00
12977;DHT22;6553;48.412;9.514;2023-05-07T08:10:58;19.90;62.00
12977;DHT22;6553;48.412;9.514;2023-05-07T08:13:29;19.90;62.00
12977;DHT22;6553;48.412;9.514;2023-05-07T08:15:55;19.90;62.20
12977;DHT22;6553;48.412;9.514;2023-05-07T08:18:21;19.90;62.20
12977;DHT22;6553;48.412;9.514;2023-05-07T08:20:48;19.90;62.10
12977;DHT22;6553;48.412;9.514;2023-05-07T08:23:19;19.90;62.20
12977;DHT22;6553;48.412;9.514;2023-05-07T08:25:45;19.90;62.20
12977;DHT22;6553;48.412;9.514;2023-05-07T08:28:13;20.00;62.30
12977;DHT22;6553;48.412;9.514;2023-05-07T08:30:40;19.90;62.30
12977;DHT22;6553;48.412;9.514;2023-05-07T08:33:06;19.90;62.20
12977;DHT22;6553;48.412;9.514;2023-05-07T08:35:33;19.90;63.10
12977;DHT22;6553;48.412;9.514;2023-05-07T08:38:00;20.00;62.40
12977;DHT22;6553;48.412;9.514;2023-05-07T08:40:26;20.00;62.30
12977;DHT22;6553;48.412;9.514;2023-05-07T08:42:54;20.00;62.20
12977;DHT22;6553;48.412;9.514;2023-05-07T08:45:23;20.00;62.20
12977;DHT22;6553;48.412;9.514;2023-05-07T08:47:55;20.00;62.30
12977;DHT22;6553;48.412;9.514;2023-05-07T08:50:27;20.00;62.20
12977;DHT22;6553;48.412;9.514;2023-05-07T08:52:54;20.00;62.40
12977;DHT22;6553;48.412;9.514;2023-05-07T08:55:22;20.00;62.40
12977;DHT22;6553;48.412;9.514;2023-05-07T08:57:50;20.00;62.40
12977;DHT22;6553;48.412;9.514;2023-05-07T09:00:18;20.00;62.30
12977;DHT22;6553;48.412;9.514;2023-05-07T09:02:48;20.10;62.50
12977;DHT22;6553;48.412;9.514;2023-05-07T09:05:15;20.00;62.30
12977;DHT22;6553;48.412;9.514;2023-05-07T09:07:41;20.10;62.40
12977;DHT22;6553;48.412;9.514;2023-05-07T09:10:08;20.10;62.40
12977;DHT22;6553;48.412;9.514;2023-05-07T09:12:36;20.10;62.40
12977;DHT22;6553;48.412;9.514;2023-05-07T09:15:04;20.10;62.40
12977;DHT22;6553;48.412;9.514;2023-05-07T09:17:31;20.10;62.50
12977;DHT22;6553;48.412;9.514;2023-05-07T09:20:03;20.10;62.50
12977;DHT22;6553;48.412;9.514;2023-05-07T09:22:36;20.10;62.40
12977;DHT22;6553;48.412;9.514;2023-05-07T09:25:07;20.10;62.40
12977;DHT22;6553;48.412;9.514;2023-05-07T09:27:35;20.10;62.60
12977;DHT22;6553;48.412;9.514;2023-05-07T09:30:08;20.10;62.50
12977;DHT22;6553;48.412;9.514;2023-05-07T09:32:36;20.10;62.60
12977;DHT22;6553;48.412;9.514;2023-05-07T09:35:18;20.10;62.60
12977;DHT22;6553;48.412;9.514;2023-05-07T09:37:48;20.10;62.70
12977;DHT22;6553;48.412;9.514;2023-05-07T09:40:25;20.10;62.60
12977;DHT22;6553;48.412;9.514;2023-05-07T09:42:54;20.10;62.90
12977;DHT22;6553;48.412;9.514;2023-05-07T09:45:25;20.10;62.70
12977;DHT22;6553;48.412;9.514;2023-05-07T09:47:56;20.10;62.60
12977;DHT22;6553;48.412;9.514;2023-05-07T09:50:29;20.10;62.60
12977;DHT22;6553;48.412;9.514;2023-05-07T09:53:03;20.10;62.60
12977;DHT22;6553;48.412;9.514;2023-05-07T09:55:30;20.10;62.60
12977;DHT22;6553;48.412;9.514;2023-05-07T09:57:57;20.10;62.60
12977;DHT22;6553;48.412;9.514;2023-05-07T10:00:27;20.10;62.60
12977;DHT22;6553;48.412;9.514;2023-05-07T10:03:03;20.10;62.70
12977;DHT22;6553;48.412;9.514;2023-05-07T10:05:43;20.10;62.70
12977;DHT22;6553;48.412;9.514;2023-05-07T10:08:10;20.20;63.80
12977;DHT22;6553;48.412;9.514;2023-05-07T10:10:38;20.30;64.00
12977;DHT22;6553;48.412;9.514;2023-05-07T10:13:09;20.30;64.90
12977;DHT22;6553;48.412;9.514;2023-05-07T10:15:38;20.40;71.10
12977;DHT22;6553;48.412;9.514;2023-05-07T10:18:06;20.40;65.70
12977;DHT22;6553;48.412;9.514;2023-05-07T10:20:34;20.40;65.90
12977;DHT22;6553;48.412;9.514;2023-05-07T10:23:04;20.40;66.80
12977;DHT22;6553;48.412;9.514;2023-05-07T10:25:38;20.40;66.30
12977;DHT22;6553;48.412;9.514;2023-05-07T10:28:17;20.40;66.40
12977;DHT22;6553;48.412;9.514;2023-05-07T10:31:15;20.40;66.40
12977;DHT22;6553;48.412;9.514;2023-05-07T10:33:47;20.40;66.30
12977;DHT22;6553;48.412;9.514;2023-05-07T10:36:18;20.50;66.50
12977;DHT22;6553;48.412;9.514;2023-05-07T10:38:46;20.50;66.40
12977;DHT22;6553;48.412;9.514;2023-05-07T10:41:13;20.40;66.30
12977;DHT22;6553;48.412;9.514;2023-05-07T10:43:43;20.40;66.30
12977;DHT22;6553;48.412;9.514;2023-05-07T10:46:19;20.50;66.30
12977;DHT22;6553;48.412;9.514;2023-05-07T10:51:39;20.50;66.30
12977;DHT22;6553;48.412;9.514;2023-05-07T10:56:48;20.50;66.20
12977;DHT22;6553;48.412;9.514;2023-05-07T11:04:32;20.50;66.10
12977;DHT22;6553;48.412;9.514;2023-05-07T11:07:29;20.50;65.80
12977;DHT22;6553;48.412;9.514;2023-05-07T11:10:04;20.40;65.80
12977;DHT22;6553;48.412;9.514;2023-05-07T11:15:13;20.30;65.90
12977;DHT22;6553;48.412;9.514;2023-05-07T11:17:58;20.30;66.00
12977;DHT22;6553;48.412;9.514;2023-05-07T11:26:16;20.20;65.80
12977;DHT22;6553;48.412;9.514;2023-05-07T11:28:43;20.20;65.80
12977;DHT22;6553;48.412;9.514;2023-05-07T11:31:10;20.20;65.70
12977;DHT22;6553;48.412;9.514;2023-05-07T11:33:38;20.20;65.70
12977;DHT22;6553;48.412;9.514;2023-05-07T11:36:08;20.20;65.60
12977;DHT22;6553;48.412;9.514;2023-05-07T11:38:39;20.20;65.50
12977;DHT22;6553;48.412;9.514;2023-05-07T11:41:06;20.20;65.40
12977;DHT22;6553;48.412;9.514;2023-05-07T11:43:33;20.20;65.40
12977;DHT22;6553;48.412;9.514;2023-05-07T11:46:11;20.20;65.30
12977;DHT22;6553;48.412;9.514;2023-05-07T11:48:38;20.20;65.10
12977;DHT22;6553;48.412;9.514;2023-05-07T11:51:05;20.20;65.20
12977;DHT22;6553;48.412;9.514;2023-05-07T11:53:36;20.20;65.10
12977;DHT22;6553;48.412;9.514;2023-05-07T11:56:11;20.20;65.10
12977;DHT22;6553;48.412;9.514;2023-05-07T11:58:40;20.20;65.10
12977;DHT22;6553;48.412;9.514;2023-05-07T12:01:11;20.20;65.00
12977;DHT22;6553;48.412;9.514;2023-05-07T12:03:40;20.20;64.90
12977;DHT22;6553;48.412;9.514;2023-05-07T12:06:08;20.20;64.80
12977;DHT22;6553;48.412;9.514;2023-05-07T12:08:40;20.20;64.80
12977;DHT22;6553;48.412;9.514;2023-05-07T12:11:13;20.20;64.80
12977;DHT22;6553;48.412;9.514;2023-05-07T12:13:41;20.20;64.80
12977;DHT22;6553;48.412;9.514;2023-05-07T12:16:07;20.20;64.80
12977;DHT22;6553;48.412;9.514;2023-05-07T12:18:35;20.20;64.80
12977;DHT22;6553;48.412;9.514;2023-05-07T12:21:01;20.20;64.80
12977;DHT22;6553;48.412;9.514;2023-05-07T12:23:29;20.20;64.90
12977;DHT22;6553;48.412;9.514;2023-05-07T12:25:55;20.20;64.80
12977;DHT22;6553;48.412;9.514;2023-05-07T12:28:21;20.20;64.80
12977;DHT22;6553;48.412;9.514;2023-05-07T12:30:48;20.20;64.80
12977;DHT22;6553;48.412;9.514;2023-05-07T12:33:18;20.20;64.80
12977;DHT22;6553;48.412;9.514;2023-05-07T12:35:48;20.20;64.70
12977;DHT22;6553;48.412;9.514;2023-05-07T12:38:16;20.20;64.60
12977;DHT22;6553;48.412;9.514;2023-05-07T12:40:47;20.20;64.60
12977;DHT22;6553;48.412;9.514;2023-05-07T12:43:20;20.20;64.60
12977;DHT22;6553;48.412;9.514;2023-05-07T12:45:50;20.20;64.50
12977;DHT22;6553;48.412;9.514;2023-05-07T12:48:17;20.20;64.50
12977;DHT22;6553;48.412;9.514;2023-05-07T12:50:45;20.20;64.50
12977;DHT22;6553;48.412;9.514;2023-05-07T12:53:14;20.20;64.50
12977;DHT22;6553;48.412;9.514;2023-05-07T12:55:45;20.20;64.50
12977;DHT22;6553;48.412;9.514;2023-05-07T13:00:43;20.20;64.50
12977;DHT22;6553;48.412;9.514;2023-05-07T13:03:10;20.20;64.40
12977;DHT22;6553;48.412;9.514;2023-05-07T13:05:36;20.20;64.40
12977;DHT22;6553;48.412;9.514;2023-05-07T13:08:02;20.20;64.70
12977;DHT22;6553;48.412;9.514;2023-05-07T13:10:28;20.20;65.40
12977;DHT22;6553;48.412;9.514;2023-05-07T13:12:54;20.20;64.90
12977;DHT22;6553;48.412;9.514;2023-05-07T13:15:21;20.20;64.90
12977;DHT22;6553;48.412;9.514;2023-05-07T13:17:47;20.20;64.90
12977;DHT22;6553;48.412;9.514;2023-05-07T13:20:13;20.20;64.90
12977;DHT22;6553;48.412;9.514;2023-05-07T13:22:39;20.20;64.90
12977;DHT22;6553;48.412;9.514;2023-05-07T13:25:05;20.20;64.90
12977;DHT22;6553;48.412;9.514;2023-05-07T13:27:32;20.20;64.90
12977;DHT22;6553;48.412;9.514;2023-05-07T13:30:01;20.20;65.00
12977;DHT22;6553;48.412;9.514;2023-05-07T13:32:26;20.20;65.10
12977;DHT22;6553;48.412;9.514;2023-05-07T13:34:52;20.20;65.20
12977;DHT22;6553;48.412;9.514;2023-05-07T13:37:18;20.10;65.00
12977;DHT22;6553;48.412;9.514;2023-05-07T13:39:43;20.20;65.10
12977;DHT22;6553;48.412;9.514;2023-05-07T13:42:10;20.20;65.10
12977;DHT22;6553;48.412;9.514;2023-05-07T13:44:36;20.10;65.10
12977;DHT22;6553;48.412;9.514;2023-05-07T13:47:02;20.10;65.00
12977;DHT22;6553;48.412;9.514;2023-05-07T13:49:28;20.10;65.00
12977;DHT22;6553;48.412;9.514;2023-05-07T13:51:53;20.10;65.00
12977;DHT22;6553;48.412;9.514;2023-05-07T13:54:19;20.10;65.00
12977;DHT22;6553;48.412;9.514;2023-05-07T13:56:45;20.20;65.20
12977;DHT22;6553;48.412;9.514;2023-05-07T13:59:11;20.20;65.20
12977;DHT22;6553;48.412;9.514;2023-05-07T14:01:37;20.10;65.20
12977;DHT22;6553;48.412;9.514;2023-05-07T14:04:03;20.10;65.10
12977;DHT22;6553;48.412;9.514;2023-05-07T14:06:29;20.10;65.50
12977;DHT22;6553;48.412;9.514;2023-05-07T14:08:55;20.10;65.30
12977;DHT22;6553;48.412;9.514;2023-05-07T14:11:23;20.10;65.20
12977;DHT22;6553;48.412;9.514;2023-05-07T14:13:49;20.10;65.00
12977;DHT22;6553;48.412;9.514;2023-05-07T14:16:14;20.10;65.00
12977;DHT22;6553;48.412;9.514;2023-05-07T14:18:40;20.10;65.10
12977;DHT22;6553;48.412;9.514;2023-05-07T14:21:06;20.10;65.20
12977;DHT22;6553;48.412;9.514;2023-05-07T14:23:32;20.10;65.30
12977;DHT22;6553;48.412;9.514;2023-05-07T14:25:58;20.10;65.30
12977;DHT22;6553;48.412;9.514;2023-05-07T14:28:24;20.10;65.50
12977;DHT22;6553;48.412;9.514;2023-05-07T14:30:50;20.10;65.80
12977;DHT22;6553;48.412;9.514;2023-05-07T14:33:15;20.10;65.90
12977;DHT22;6553;48.412;9.514;2023-05-07T14:35:41;20.10;66.00
12977;DHT22;6553;48.412;9.514;2023-05-07T14:38:10;20.10;65.90
12977;DHT22;6553;48.412;9.514;2023-05-07T14:40:36;20.10;65.60
12977;DHT22;6553;48.412;9.514;2023-05-07T14:43:02;20.10;65.60
12977;DHT22;6553;48.412;9.514;2023-05-07T14:45:27;20.10;65.40
12977;DHT22;6553;48.412;9.514;2023-05-07T14:47:53;20.10;65.30
12977;DHT22;6553;48.412;9.514;2023-05-07T14:50:19;20.10;65.50
12977;DHT22;6553;48.412;9.514;2023-05-07T14:52:45;20.10;65.50
12977;DHT22;6553;48.412;9.514;2023-05-07T14:55:11;20.10;65.50
12977;DHT22;6553;48.412;9.514;2023-05-07T14:57:37;20.10;65.90
12977;DHT22;6553;48.412;9.514;2023-05-07T15:00:04;20.10;65.80
12977;DHT22;6553;48.412;9.514;2023-05-07T15:02:30;20.10;65.70
12977;DHT22;6553;48.412;9.514;2023-05-07T15:04:55;20.10;65.80
12977;DHT22;6553;48.412;9.514;2023-05-07T15:07:22;20.10;65.50
12977;DHT22;6553;48.412;9.514;2023-05-07T15:09:47;20.10;65.60
12977;DHT22;6553;48.412;9.514;2023-05-07T15:12:13;20.10;65.50
12977;DHT22;6553;48.412;9.514;2023-05-07T15:14:39;20.10;65.60
12977;DHT22;6553;48.412;9.514;2023-05-07T15:17:05;20.10;65.50
12977;DHT22;6553;48.412;9.514;2023-05-07T15:19:31;20.10;65.70
12977;DHT22;6553;48.412;9.514;2023-05-07T15:21:58;20.10;65.60
12977;DHT22;6553;48.412;9.514;2023-05-07T15:24:28;20.10;65.60
12977;DHT22;6553;48.412;9.514;2023-05-07T15:26:55;20.10;65.60
12977;DHT22;6553;48.412;9.514;2023-05-07T15:29:20;20.10;65.70
12977;DHT22;6553;48.412;9.514;2023-05-07T15:31:47;20.10;65.70
12977;DHT22;6553;48.412;9.514;2023-05-07T15:34:13;20.10;65.70
12977;DHT22;6553;48.412;9.514;2023-05-07T15:36:40;20.10;65.60
12977;DHT22;6553;48.412;9.514;2023-05-07T15:39:06;20.10;65.50
12977;DHT22;6553;48.412;9.514;2023-05-07T15:41:32;20.10;65.50
12977;DHT22;6553;48.412;9.514;2023-05-07T15:43:58;20.10;65.50
12977;DHT22;6553;48.412;9.514;2023-05-07T15:46:25;20.10;65.40
12977;DHT22;6553;48.412;9.514;2023-05-07T15:48:51;20.00;65.30
12977;DHT22;6553;48.412;9.514;2023-05-07T15:51:18;20.10;65.30
12977;DHT22;6553;48.412;9.514;2023-05-07T15:53:45;20.00;65.20
12977;DHT22;6553;48.412;9.514;2023-05-07T15:56:11;20.10;65.30
12977;DHT22;6553;48.412;9.514;2023-05-07T15:58:37;20.10;65.20
12977;DHT22;6553;48.412;9.514;2023-05-07T16:01:03;20.10;65.20
12977;DHT22;6553;48.412;9.514;2023-05-07T16:03:30;20.10;65.20
12977;DHT22;6553;48.412;9.514;2023-05-07T16:05:56;20.10;65.20
12977;DHT22;6553;48.412;9.514;2023-05-07T16:08:23;20.10;65.10